Time;durP1;ratioP1;P1;durP2;ratioP2;P2;SDS_P1;SDS_P2;PMS_P1;PMS_P2;Temp;Humidity;BMP_temperature;BMP_pressure;BME280_temperature;BME280_humidity;BME280_pressure;Samples;Min_cycle;Max_cycle;Signal;HPM_P1;HPM_P2
2021/11/24 00:00:37;;;;;;;10.40;5.60;;;7.00;99.90;;;;;;5071855;28;20024;-63
2021/11/24 00:03:03;;;;;;;11.02;5.28;;;7.00;99.90;;;;;;5091061;28;20074;-62
2021/11/24 00:05:28;;;;;;;10.48;5.50;;;6.90;99.90;;;;;;5081990;28;20040;-62
2021/11/24 00:07:54;;;;;;;10.45;5.05;;;6.90;99.90;;;;;;5072323;28;20074;-62
2021/11/24 00:10:20;;;;;;;10.45;4.95;;;6.90;99.90;;;;;;5060466;28;20028;-63
2021/11/24 00:12:46;;;;;;;8.88;4.93;;;6.90;99.90;;;;;;5089147;28;20028;-63
2021/11/24 00:15:12;;;;;;;12.27;5.25;;;7.00;99.90;;;;;;5070173;28;20081;-62
2021/11/24 00:17:39;;;;;;;12.95;5.35;;;7.00;99.90;;;;;;5073104;28;20036;-62
2021/11/24 00:20:06;;;;;;;20.73;5.13;;;6.90;99.90;;;;;;5070380;28;20048;-63
2021/11/24 00:22:32;;;;;;;9.98;5.03;;;6.80;99.90;;;;;;5071990;28;20124;-63
2021/11/24 00:24:58;;;;;;;8.63;5.22;;;6.90;99.90;;;;;;5056946;28;20115;-63
2021/11/24 00:27:24;;;;;;;10.70;4.68;;;6.90;99.90;;;;;;5082296;28;20107;-65
2021/11/24 00:29:52;;;;;;;13.05;4.50;;;6.90;99.90;;;;;;5072679;28;20024;-62
2021/11/24 00:32:18;;;;;;;9.07;4.47;;;7.00;99.90;;;;;;5091056;28;20119;-63
2021/11/24 00:34:43;;;;;;;11.02;4.95;;;7.00;99.90;;;;;;5081340;28;20139;-62
2021/11/24 00:37:09;;;;;;;9.35;4.55;;;7.00;99.90;;;;;;5071832;28;20542;-63
2021/11/24 00:39:35;;;;;;;8.38;4.75;;;7.00;99.90;;;;;;5085974;28;20365;-61
2021/11/24 00:42:00;;;;;;;10.68;5.68;;;7.10;99.90;;;;;;5091216;28;20028;-62
2021/11/24 00:44:26;;;;;;;11.02;6.20;;;7.10;99.90;;;;;;5090342;28;20028;-64
2021/11/24 00:46:52;;;;;;;10.23;5.72;;;7.10;99.90;;;;;;5073200;28;20419;-62
2021/11/24 00:49:17;;;;;;;9.68;5.70;;;7.00;99.90;;;;;;5089972;28;20024;-62
2021/11/24 00:51:43;;;;;;;13.82;6.07;;;7.00;99.90;;;;;;5090063;28;20032;-62
2021/11/24 00:54:09;;;;;;;9.75;5.90;;;7.10;99.90;;;;;;5084736;28;20030;-63
2021/11/24 00:56:36;;;;;;;10.15;6.18;;;7.00;99.90;;;;;;5078257;28;20350;-62
2021/11/24 00:59:03;;;;;;;11.20;6.10;;;7.00;99.90;;;;;;5084617;28;20093;-62
2021/11/24 01:01:29;;;;;;;11.13;5.63;;;6.90;99.90;;;;;;5090101;28;20401;-62
2021/11/24 01:03:55;;;;;;;10.85;5.90;;;6.80;99.90;;;;;;5053347;28;20102;-62
2021/11/24 01:06:20;;;;;;;9.38;5.85;;;6.70;99.90;;;;;;5059886;28;20462;-62
2021/11/24 01:08:46;;;;;;;8.82;6.07;;;6.80;99.90;;;;;;5076715;28;20512;-62
2021/11/24 01:11:12;;;;;;;11.70;5.90;;;6.80;99.90;;;;;;5071394;28;20020;-62
2021/11/24 01:13:38;;;;;;;9.40;5.82;;;6.60;99.90;;;;;;5075658;28;20079;-62
2021/11/24 01:16:04;;;;;;;7.88;5.72;;;6.70;99.90;;;;;;5083941;28;20538;-62
2021/11/24 01:18:29;;;;;;;9.70;5.30;;;6.90;99.90;;;;;;5072096;28;20079;-63
2021/11/24 01:20:55;;;;;;;10.57;6.00;;;6.90;99.90;;;;;;5073531;28;20058;-62
2021/11/24 01:23:21;;;;;;;6.65;5.18;;;6.70;99.90;;;;;;5074884;28;20032;-62
2021/11/24 01:25:46;;;;;;;13.73;7.03;;;6.60;99.90;;;;;;5068078;28;20192;-62
2021/11/24 01:28:12;;;;;;;10.13;6.47;;;6.70;99.90;;;;;;5074020;28;20028;-63
2021/11/24 01:30:38;;;;;;;9.85;6.43;;;6.70;99.90;;;;;;5071888;28;20036;-61
2021/11/24 01:33:04;;;;;;;8.73;6.22;;;6.80;99.90;;;;;;5087988;28;20024;-61
2021/11/24 01:35:30;;;;;;;10.23;6.47;;;6.70;99.90;;;;;;5070764;28;20482;-62
2021/11/24 01:37:55;;;;;;;10.70;6.63;;;6.70;99.90;;;;;;5083451;28;20375;-62
2021/11/24 01:40:21;;;;;;;8.48;6.00;;;6.70;99.90;;;;;;5094540;28;20373;-62
2021/11/24 01:42:47;;;;;;;13.50;6.38;;;6.70;99.90;;;;;;5062253;28;20064;-62
2021/11/24 01:45:18;;;;;;;13.90;6.85;;;6.60;99.90;;;;;;5094144;28;20022;-62
2021/11/24 01:47:44;;;;;;;13.05;6.72;;;6.60;99.90;;;;;;5093918;28;20032;-63
2021/11/24 01:50:10;;;;;;;13.07;6.15;;;6.50;99.90;;;;;;5076309;28;20024;-61
2021/11/24 01:52:36;;;;;;;12.15;6.03;;;6.60;99.90;;;;;;5079013;28;20051;-62
2021/11/24 01:55:05;;;;;;;7.88;5.88;;;6.50;99.90;;;;;;5074747;28;20095;-62
2021/11/24 01:57:31;;;;;;;9.75;5.82;;;6.60;99.90;;;;;;5087032;28;20354;-62
2021/11/24 01:59:58;;;;;;;10.60;5.75;;;6.50;99.90;;;;;;5093611;28;20031;-63
2021/11/24 02:02:27;;;;;;;8.80;5.50;;;6.60;99.90;;;;;;5059264;28;20432;-62
2021/11/24 02:04:53;;;;;;;13.20;6.22;;;6.70;99.90;;;;;;5073828;28;20020;-62
2021/11/24 02:07:19;;;;;;;11.50;6.57;;;6.80;99.90;;;;;;5087905;28;20024;-63
2021/11/24 02:09:46;;;;;;;11.45;5.97;;;6.80;99.90;;;;;;5093429;28;20116;-62
2021/11/24 02:12:12;;;;;;;10.93;5.93;;;6.80;99.90;;;;;;5074113;28;20062;-63
2021/11/24 02:14:39;;;;;;;8.18;5.90;;;6.80;99.90;;;;;;5055735;28;20052;-63
2021/11/24 02:17:05;;;;;;;14.88;6.60;;;6.70;99.90;;;;;;5087972;28;20064;-65
2021/11/24 02:19:33;;;;;;;12.07;6.65;;;6.70;99.90;;;;;;5073447;28;20470;-62
2021/11/24 02:21:59;;;;;;;12.68;6.50;;;6.60;99.90;;;;;;5062355;28;20151;-63
2021/11/24 02:24:28;;;;;;;17.00;6.30;;;6.60;99.90;;;;;;5068351;28;20028;-63
2021/11/24 02:26:54;;;;;;;10.05;6.80;;;6.70;99.90;;;;;;5081611;28;20031;-63
2021/11/24 02:29:20;;;;;;;10.52;6.13;;;6.70;99.90;;;;;;5059346;28;20096;-62
2021/11/24 02:31:48;;;;;;;12.57;6.00;;;6.70;99.90;;;;;;5074418;28;20363;-62
2021/11/24 02:34:15;;;;;;;9.65;6.13;;;6.70;99.90;;;;;;5067985;28;20039;-62
2021/11/24 02:36:40;;;;;;;9.02;5.95;;;6.70;99.90;;;;;;5074109;28;20033;-62
2021/11/24 02:39:06;;;;;;;7.72;6.03;;;6.80;99.90;;;;;;5092168;28;20028;-63
2021/11/24 02:41:32;;;;;;;10.90;6.78;;;6.70;99.90;;;;;;5087708;28;20371;-63
2021/11/24 02:44:17;;;;;;;11.85;6.68;;;6.70;99.90;;;;;;5085010;28;20220;-62
2021/11/24 02:46:43;;;;;;;9.52;5.97;;;6.80;99.90;;;;;;5085709;28;20107;-62
2021/11/24 02:49:09;;;;;;;15.85;7.20;;;6.70;99.90;;;;;;5080495;28;20059;-61
2021/11/24 02:51:34;;;;;;;10.75;6.20;;;6.60;99.90;;;;;;5061686;28;20029;-63
2021/11/24 02:54:00;;;;;;;16.85;6.72;;;6.60;99.90;;;;;;5092960;28;20034;-63
2021/11/24 02:56:26;;;;;;;10.23;6.28;;;6.60;99.90;;;;;;5082199;28;20354;-62
2021/11/24 02:58:51;;;;;;;11.35;6.18;;;6.70;99.90;;;;;;5072607;28;20374;-62
2021/11/24 03:01:17;;;;;;;11.55;5.90;;;6.60;99.90;;;;;;5061820;28;20067;-62
2021/11/24 03:03:43;;;;;;;12.20;6.22;;;6.60;99.90;;;;;;5090559;28;20437;-62
2021/11/24 03:06:08;;;;;;;11.55;6.75;;;6.70;99.90;;;;;;5060586;28;20099;-62
2021/11/24 03:08:34;;;;;;;10.65;6.22;;;6.50;99.90;;;;;;5061310;28;20039;-63
2021/11/24 03:11:00;;;;;;;11.63;5.78;;;6.60;99.90;;;;;;5062235;28;20086;-62
2021/11/24 03:13:25;;;;;;;9.50;5.75;;;6.70;99.90;;;;;;5073408;28;20127;-62
2021/11/24 03:15:51;;;;;;;10.55;6.60;;;6.70;99.90;;;;;;5088874;28;20068;-61
2021/11/24 03:18:17;;;;;;;11.57;6.32;;;6.70;99.90;;;;;;5073774;28;20460;-61
2021/11/24 03:20:42;;;;;;;11.82;6.68;;;6.70;99.90;;;;;;5091455;28;20060;-62
2021/11/24 03:23:08;;;;;;;12.07;6.03;;;6.60;99.90;;;;;;5090423;28;20040;-63
2021/11/24 03:25:35;;;;;;;12.05;6.07;;;6.40;99.90;;;;;;5072548;28;20385;-64
2021/11/24 03:28:01;;;;;;;11.02;6.15;;;6.40;99.90;;;;;;5074699;28;20028;-63
2021/11/24 03:30:29;;;;;;;10.15;5.47;;;6.30;99.90;;;;;;5074634;28;20119;-62
2021/11/24 03:32:57;;;;;;;11.10;6.43;;;6.40;99.90;;;;;;5083641;28;20090;-62
2021/11/24 03:35:24;;;;;;;9.88;5.78;;;6.40;99.90;;;;;;5079353;28;20040;-62
2021/11/24 03:37:52;;;;;;;10.10;5.75;;;6.60;99.90;;;;;;5071658;28;20031;-62
2021/11/24 03:40:23;;;;;;;16.25;6.63;;;6.40;99.90;;;;;;5066192;28;20029;-62
2021/11/24 03:42:50;;;;;;;10.70;6.03;;;6.40;99.90;;;;;;5078643;28;20119;-62
2021/11/24 03:45:19;;;;;;;12.60;6.00;;;6.40;99.90;;;;;;5072872;28;20123;-62
2021/11/24 03:47:45;;;;;;;9.00;5.78;;;6.30;99.90;;;;;;5071807;28;20035;-63
2021/11/24 03:50:13;;;;;;;11.65;6.50;;;6.50;99.90;;;;;;5072683;28;20024;-63
2021/11/24 03:52:39;;;;;;;12.80;6.15;;;6.40;99.90;;;;;;5072048;28;20043;-63
2021/11/24 03:55:07;;;;;;;14.50;5.20;;;6.50;99.90;;;;;;5058970;28;20040;-62
2021/11/24 03:57:32;;;;;;;15.60;5.97;;;6.50;99.90;;;;;;5086752;28;20039;-62
2021/11/24 03:59:58;;;;;;;8.23;5.28;;;6.50;99.90;;;;;;5077657;28;20029;-62
2021/11/24 04:02:24;;;;;;;13.88;6.50;;;6.50;99.90;;;;;;5073893;28;20036;-62
2021/11/24 04:04:50;;;;;;;10.77;6.65;;;6.60;99.90;;;;;;5087508;28;20145;-62
2021/11/24 04:07:16;;;;;;;12.85;6.30;;;6.60;99.90;;;;;;5072582;28;20044;-62
2021/11/24 04:09:41;;;;;;;12.52;6.20;;;6.60;99.90;;;;;;5084788;28;20058;-64
2021/11/24 04:12:07;;;;;;;11.57;5.82;;;6.70;99.90;;;;;;5091785;28;20523;-63
2021/11/24 04:14:33;;;;;;;10.93;6.30;;;6.60;99.90;;;;;;5090793;28;20066;-63
2021/11/24 04:16:59;;;;;;;12.13;6.40;;;6.60;99.90;;;;;;5079185;28;20060;-63
2021/11/24 04:19:24;;;;;;;12.65;5.63;;;6.50;99.90;;;;;;5073733;28;20024;-62
2021/11/24 04:21:50;;;;;;;13.00;6.28;;;6.50;99.90;;;;;;5071311;28;20121;-63
2021/11/24 04:24:18;;;;;;;10.57;6.28;;;6.40;99.90;;;;;;5083248;28;20049;-63
2021/11/24 04:26:43;;;;;;;9.18;5.53;;;6.40;99.90;;;;;;5060928;28;20081;-63
2021/11/24 04:29:09;;;;;;;17.13;7.22;;;6.40;99.90;;;;;;5089680;28;20028;-63
2021/11/24 04:31:35;;;;;;;14.25;6.65;;;6.40;99.90;;;;;;5090622;28;20180;-62
2021/11/24 04:34:00;;;;;;;9.80;6.25;;;6.40;99.90;;;;;;5090723;28;20032;-62
2021/11/24 04:36:26;;;;;;;13.35;5.60;;;6.50;99.90;;;;;;5084397;28;20411;-62
2021/11/24 04:38:52;;;;;;;11.60;6.75;;;6.40;99.90;;;;;;5073743;28;20024;-62
2021/11/24 04:41:17;;;;;;;11.93;6.60;;;6.50;99.90;;;;;;5081395;28;20029;-63
2021/11/24 04:43:46;;;;;;;11.65;6.00;;;6.50;99.90;;;;;;5090252;28;20374;-63
2021/11/24 04:46:16;;;;;;;9.88;5.78;;;6.50;99.90;;;;;;5072834;28;20393;-63
2021/11/24 04:48:42;;;;;;;10.95;5.68;;;6.50;99.90;;;;;;5089942;28;20017;-62
2021/11/24 04:51:08;;;;;;;12.98;5.85;;;6.50;99.90;;;;;;5070064;28;20043;-62
2021/11/24 04:53:34;;;;;;;12.52;6.38;;;6.50;99.90;;;;;;5071168;28;20477;-62
2021/11/24 04:56:00;;;;;;;12.27;5.95;;;6.50;99.90;;;;;;5075749;28;20028;-62
2021/11/24 04:58:26;;;;;;;11.60;5.65;;;6.40;99.90;;;;;;5086707;28;20054;-63
2021/11/24 05:00:52;;;;;;;11.13;6.60;;;6.40;99.90;;;;;;5075370;28;20020;-63
2021/11/24 05:03:17;;;;;;;9.32;5.75;;;6.40;99.90;;;;;;5070891;28;20028;-62
2021/11/24 05:05:43;;;;;;;18.60;6.00;;;6.50;99.90;;;;;;5070596;28;20028;-63
2021/11/24 05:08:09;;;;;;;9.88;5.72;;;6.60;99.90;;;;;;5071347;28;20042;-62
2021/11/24 05:10:35;;;;;;;9.77;5.85;;;6.50;99.90;;;;;;5085026;28;20024;-62
2021/11/24 05:13:01;;;;;;;14.13;7.53;;;6.40;99.90;;;;;;5090030;28;20032;-63
2021/11/24 05:15:32;;;;;;;10.80;6.70;;;6.20;99.90;;;;;;5090448;28;20036;-62
2021/11/24 05:18:02;;;;;;;13.65;6.97;;;6.30;99.90;;;;;;5059550;28;20032;-61
2021/11/24 05:20:30;;;;;;;16.52;6.72;;;6.30;99.90;;;;;;5089887;28;20125;-63
2021/11/24 05:22:59;;;;;;;10.10;6.32;;;6.30;99.90;;;;;;5083191;28;20144;-63
2021/11/24 05:25:28;;;;;;;12.30;6.65;;;6.40;99.90;;;;;;5083859;28;20029;-62
2021/11/24 05:27:54;;;;;;;11.68;6.55;;;6.40;99.90;;;;;;5084943;28;20501;-61
2021/11/24 05:30:21;;;;;;;16.02;7.50;;;6.30;99.90;;;;;;5090501;28;20028;-63
2021/11/24 05:32:47;;;;;;;12.90;7.82;;;6.10;99.90;;;;;;5068811;28;20028;-61
2021/11/24 05:35:13;;;;;;;13.45;7.25;;;6.00;99.90;;;;;;5070407;28;20086;-62
2021/11/24 05:37:38;;;;;;;15.40;7.53;;;6.10;99.90;;;;;;5084560;28;20024;-62
2021/11/24 05:40:05;;;;;;;13.68;7.60;;;6.10;99.90;;;;;;5089123;28;20066;-62
2021/11/24 05:42:31;;;;;;;15.18;7.43;;;6.20;99.90;;;;;;5069254;28;20043;-63
2021/11/24 05:48:03;;;;;;;11.77;6.53;;;6.00;99.90;;;;;;5067848;28;20048;-62
2021/11/24 05:50:30;;;;;;;20.60;8.13;;;6.20;99.90;;;;;;5077007;28;20036;-62
2021/11/24 05:52:56;;;;;;;12.25;6.88;;;6.30;99.90;;;;;;5070152;28;20033;-63
2021/11/24 05:55:23;;;;;;;14.88;7.07;;;6.30;99.90;;;;;;5061439;28;20102;-63
2021/11/24 05:57:49;;;;;;;13.45;6.60;;;6.20;99.90;;;;;;5082709;28;20034;-62
2021/11/24 06:00:16;;;;;;;14.48;7.70;;;6.20;99.90;;;;;;5083396;28;20099;-62
2021/11/24 06:02:42;;;;;;;18.05;7.20;;;6.30;99.90;;;;;;5086237;28;20060;-62
2021/11/24 06:05:08;;;;;;;12.00;7.40;;;6.40;99.90;;;;;;5080516;28;20423;-63
2021/11/24 06:07:34;;;;;;;18.65;8.27;;;6.40;99.90;;;;;;5058876;28;20037;-62
2021/11/24 06:10:05;;;;;;;18.63;8.63;;;6.40;99.90;;;;;;5068470;28;20032;-62
2021/11/24 06:12:30;;;;;;;12.82;7.40;;;6.40;99.90;;;;;;5070704;28;20051;-64
2021/11/24 06:14:56;;;;;;;10.75;7.10;;;6.40;99.90;;;;;;5062109;28;20378;-62
2021/11/24 06:17:22;;;;;;;13.77;7.50;;;6.30;99.90;;;;;;5068271;28;20411;-64
2021/11/24 06:19:47;;;;;;;12.68;7.72;;;6.30;99.90;;;;;;5085962;28;20024;-63
2021/11/24 06:22:13;;;;;;;16.50;7.97;;;6.20;99.90;;;;;;5063233;28;20052;-62
2021/11/24 06:24:38;;;;;;;15.52;7.82;;;6.10;99.90;;;;;;5073837;28;20052;-63
2021/11/24 06:27:04;;;;;;;14.13;8.00;;;6.10;99.90;;;;;;5073566;28;20224;-63
2021/11/24 06:29:30;;;;;;;12.68;8.05;;;6.00;99.90;;;;;;5073851;28;20036;-62
2021/11/24 06:31:56;;;;;;;21.48;8.68;;;5.90;99.90;;;;;;5059837;28;20041;-63
2021/11/24 06:34:21;;;;;;;16.23;8.57;;;5.80;99.90;;;;;;5073111;28;20033;-63
2021/11/24 06:36:47;;;;;;;10.30;6.72;;;6.00;99.90;;;;;;5067449;28;20481;-64
2021/11/24 06:39:13;;;;;;;17.75;8.57;;;5.90;99.90;;;;;;5071471;28;20024;-64
2021/11/24 06:41:39;;;;;;;13.98;7.45;;;5.80;99.90;;;;;;5072806;28;20486;-63
2021/11/24 06:44:04;;;;;;;19.23;8.10;;;5.90;99.90;;;;;;5072487;28;20165;-62
2021/11/24 06:46:30;;;;;;;11.85;7.18;;;6.00;99.90;;;;;;5055108;28;20033;-63
2021/11/24 06:48:56;;;;;;;20.25;8.15;;;6.00;99.90;;;;;;5072838;28;20032;-63
2021/11/24 06:51:21;;;;;;;22.08;8.48;;;6.10;99.90;;;;;;5072163;28;20119;-64
2021/11/24 06:53:47;;;;;;;13.65;7.15;;;7.00;99.90;;;;;;5072441;28;20459;-64
2021/11/24 06:56:13;;;;;;;13.25;7.15;;;6.70;99.90;;;;;;5072932;28;20058;-63
2021/11/24 06:58:38;;;;;;;17.58;9.35;;;6.40;99.90;;;;;;5055021;28;20055;-62
2021/11/24 07:01:04;;;;;;;17.55;7.90;;;6.40;99.90;;;;;;5072498;28;20070;-62
2021/11/24 07:03:30;;;;;;;19.92;9.00;;;6.40;99.90;;;;;;5072451;28;20041;-63
2021/11/24 07:05:56;;;;;;;11.80;7.15;;;6.40;99.90;;;;;;5070468;28;20066;-63
2021/11/24 07:08:22;;;;;;;12.35;7.88;;;6.40;99.90;;;;;;5067843;28;20024;-63
2021/11/24 07:10:48;;;;;;;18.20;7.97;;;6.40;99.90;;;;;;5072141;28;20031;-63
2021/11/24 07:13:14;;;;;;;15.77;8.10;;;6.40;99.90;;;;;;5072473;28;20115;-62
2021/11/24 07:15:40;;;;;;;15.25;8.40;;;6.30;99.90;;;;;;5072728;28;20111;-62
2021/11/24 07:18:05;;;;;;;15.43;8.07;;;6.30;99.90;;;;;;5071727;28;20186;-62
2021/11/24 07:20:31;;;;;;;14.75;7.28;;;6.30;99.90;;;;;;5071479;28;20020;-63
2021/11/24 07:22:58;;;;;;;13.35;7.18;;;6.30;99.90;;;;;;5091702;28;20055;-61
2021/11/24 07:25:24;;;;;;;12.75;7.30;;;6.40;99.90;;;;;;5072236;28;20031;-62
2021/11/24 07:27:50;;;;;;;16.77;7.57;;;6.50;99.90;;;;;;5085136;28;20024;-62
2021/11/24 07:30:18;;;;;;;19.33;7.78;;;6.40;99.90;;;;;;5072551;28;20025;-62
2021/11/24 07:32:44;;;;;;;32.33;7.95;;;6.40;99.90;;;;;;5059126;28;20028;-62
2021/11/24 07:35:10;;;;;;;20.27;8.18;;;6.40;99.90;;;;;;5078588;28;20043;-62
2021/11/24 07:37:37;;;;;;;15.10;7.50;;;6.40;99.90;;;;;;5072065;28;20107;-63
2021/11/24 07:40:04;;;;;;;14.27;7.57;;;6.40;99.90;;;;;;5078367;28;20051;-63
2021/11/24 07:42:30;;;;;;;13.32;7.50;;;6.30;99.90;;;;;;5064571;28;20058;-62
2021/11/24 07:44:55;;;;;;;14.18;8.07;;;6.30;99.90;;;;;;5090372;28;20032;-62
2021/11/24 07:47:21;;;;;;;16.17;7.00;;;6.40;99.90;;;;;;5085212;28;20035;-63
2021/11/24 07:49:47;;;;;;;12.35;7.57;;;6.40;99.90;;;;;;5079195;28;20422;-62
2021/11/24 07:52:12;;;;;;;13.07;7.28;;;6.20;99.90;;;;;;5071642;28;20111;-63
2021/11/24 07:54:38;;;;;;;20.52;10.05;;;6.10;99.90;;;;;;5078567;28;20379;-62
2021/11/24 07:57:04;;;;;;;16.17;7.65;;;6.30;99.90;;;;;;5080585;28;20025;-62
2021/11/24 07:59:30;;;;;;;18.17;9.48;;;6.20;99.90;;;;;;5091804;28;20020;-62
2021/11/24 08:01:56;;;;;;;16.85;7.75;;;6.40;99.90;;;;;;5072562;28;20488;-62
2021/11/24 08:04:21;;;;;;;16.88;7.57;;;6.40;99.90;;;;;;5070287;28;20039;-62
2021/11/24 08:06:47;;;;;;;15.63;7.88;;;6.40;99.90;;;;;;5073870;28;20020;-63
2021/11/24 08:09:13;;;;;;;14.90;8.25;;;6.50;99.90;;;;;;5090719;28;20024;-61
2021/11/24 08:11:38;;;;;;;12.23;7.47;;;6.60;99.90;;;;;;5072403;28;20063;-62
2021/11/24 08:14:04;;;;;;;16.65;8.07;;;6.50;99.90;;;;;;5089377;28;20106;-62
2021/11/24 08:16:30;;;;;;;15.57;8.25;;;6.40;99.90;;;;;;5071460;28;20078;-62
2021/11/24 08:18:55;;;;;;;16.23;8.43;;;6.50;99.90;;;;;;5061731;28;20435;-63
2021/11/24 08:21:21;;;;;;;20.98;8.43;;;6.50;99.90;;;;;;5069604;28;20189;-64
2021/11/24 08:23:47;;;;;;;19.58;8.77;;;6.50;99.90;;;;;;5071217;28;20036;-62
2021/11/24 08:26:13;;;;;;;14.73;7.97;;;6.40;99.90;;;;;;5063504;28;20029;-62
2021/11/24 08:28:39;;;;;;;16.55;8.65;;;6.40;99.90;;;;;;5070913;28;20470;-63
2021/11/24 08:31:04;;;;;;;17.33;8.88;;;6.40;99.90;;;;;;5067298;28;20082;-63
2021/11/24 08:33:30;;;;;;;16.30;7.70;;;6.40;99.90;;;;;;5059739;28;20094;-62
2021/11/24 08:35:55;;;;;;;15.25;7.55;;;6.30;99.90;;;;;;5054849;28;20533;-62
2021/11/24 08:38:21;;;;;;;16.63;8.07;;;6.30;99.90;;;;;;5052227;28;20031;-63
2021/11/24 08:40:47;;;;;;;14.55;8.55;;;6.40;99.90;;;;;;5057187;28;20059;-65
2021/11/24 08:43:13;;;;;;;16.95;9.32;;;6.60;99.90;;;;;;5056294;28;20033;-63
2021/11/24 08:45:39;;;;;;;15.10;8.18;;;6.70;99.90;;;;;;5063667;28;20035;-63
2021/11/24 08:48:05;;;;;;;12.50;7.93;;;6.80;99.90;;;;;;5054618;28;20382;-62
2021/11/24 08:50:32;;;;;;;15.35;8.15;;;6.60;99.90;;;;;;5057771;28;20021;-63
2021/11/24 08:52:58;;;;;;;19.63;10.25;;;6.50;99.90;;;;;;5055654;28;20063;-63
2021/11/24 08:55:24;;;;;;;15.15;9.30;;;6.50;99.90;;;;;;5054998;28;20025;-62
2021/11/24 08:57:50;;;;;;;16.42;8.07;;;6.60;99.90;;;;;;5053644;28;20032;-65
2021/11/24 09:00:18;;;;;;;12.98;7.90;;;6.60;99.90;;;;;;5055371;28;20146;-62
2021/11/24 09:02:45;;;;;;;20.23;11.18;;;6.60;99.90;;;;;;5057349;28;20032;-62
2021/11/24 09:05:12;;;;;;;16.48;9.68;;;6.60;99.90;;;;;;5053667;28;20021;-63
2021/11/24 09:07:39;;;;;;;10.98;7.35;;;6.60;99.90;;;;;;5055346;28;20035;-63
2021/11/24 09:10:06;;;;;;;17.65;8.32;;;6.70;99.90;;;;;;5052836;28;20036;-62
2021/11/24 09:12:32;;;;;;;14.85;8.10;;;6.70;99.90;;;;;;5054580;28;20031;-63
2021/11/24 09:14:57;;;;;;;14.43;8.88;;;6.80;99.90;;;;;;5057095;28;20132;-61
2021/11/24 09:17:23;;;;;;;16.23;7.75;;;6.90;99.90;;;;;;5055867;28;20409;-64
2021/11/24 09:19:49;;;;;;;16.65;8.40;;;6.90;99.90;;;;;;5052919;28;20550;-63
2021/11/24 09:22:16;;;;;;;16.08;9.20;;;7.00;99.90;;;;;;5069235;28;20082;-62
2021/11/24 09:24:42;;;;;;;15.20;7.38;;;7.70;99.90;;;;;;5084234;28;20058;-64
2021/11/24 09:27:16;;;;;;;15.05;9.15;;;7.90;99.90;;;;;;5077745;28;20497;-64
2021/11/24 09:29:43;;;;;;;15.70;8.73;;;7.70;99.90;;;;;;5067433;28;20040;-63
2021/11/24 09:32:10;;;;;;;18.95;8.07;;;7.30;99.90;;;;;;5086661;28;20214;-62
2021/11/24 09:34:36;;;;;;;12.50;8.32;;;7.30;99.90;;;;;;5063541;28;20036;-62
2021/11/24 09:37:01;;;;;;;14.02;7.95;;;7.30;99.90;;;;;;5079059;28;20469;-62
2021/11/24 09:39:27;;;;;;;13.98;7.53;;;7.50;99.90;;;;;;5074939;28;20024;-62
2021/11/24 09:41:56;;;;;;;16.38;9.43;;;7.60;99.90;;;;;;5064973;28;20029;-63
2021/11/24 09:44:22;;;;;;;14.45;7.90;;;8.00;99.90;;;;;;5070177;28;20032;-62
2021/11/24 09:46:50;;;;;;;16.75;7.97;;;7.70;99.90;;;;;;5074024;28;20057;-62
2021/11/24 09:49:18;;;;;;;19.02;7.95;;;7.40;99.90;;;;;;5071453;28;20478;-62
2021/11/24 09:51:45;;;;;;;14.18;7.45;;;7.10;99.90;;;;;;5067888;28;20083;-63
2021/11/24 09:54:12;;;;;;;13.93;7.43;;;7.20;99.90;;;;;;5070510;28;20386;-61
2021/11/24 09:56:40;;;;;;;12.27;6.70;;;7.30;99.90;;;;;;5074797;28;20032;-63
2021/11/24 09:59:07;;;;;;;11.80;6.93;;;7.30;99.90;;;;;;5078849;28;20104;-62
2021/11/24 10:01:33;;;;;;;11.98;5.82;;;7.50;99.90;;;;;;5080942;28;20067;-62
2021/11/24 10:04:00;;;;;;;11.65;5.80;;;7.30;99.90;;;;;;5078462;28;20509;-62
2021/11/24 10:06:27;;;;;;;12.65;6.38;;;7.50;99.90;;;;;;5083676;28;20049;-63
2021/11/24 10:08:53;;;;;;;12.73;6.65;;;7.60;99.90;;;;;;5074331;28;20029;-62
2021/11/24 10:11:19;;;;;;;17.65;6.00;;;7.60;99.90;;;;;;5063683;28;20035;-63
2021/11/24 10:13:50;;;;;;;16.83;7.05;;;7.40;99.90;;;;;;5094085;28;20040;-63
2021/11/24 10:16:26;;;;;;;12.02;5.45;;;7.70;99.90;;;;;;5072903;28;20036;-61
2021/11/24 10:18:59;;;;;;;12.65;6.70;;;7.60;99.90;;;;;;5093730;28;20074;-62
2021/11/24 10:21:25;;;;;;;10.73;5.25;;;7.80;99.90;;;;;;5074825;28;20404;-62
2021/11/24 10:23:52;;;;;;;12.02;4.65;;;7.90;99.90;;;;;;5093996;28;20062;-62
2021/11/24 10:26:32;;;;;;;10.75;4.85;;;8.00;99.90;;;;;;5085908;28;20101;-62
2021/11/24 10:29:07;;;;;;;10.23;5.63;;;8.00;99.90;;;;;;5092430;28;20056;-65
2021/11/24 10:31:39;;;;;;;9.65;4.63;;;8.30;99.90;;;;;;5071641;28;20541;-62
2021/11/24 10:34:11;;;;;;;38.92;7.03;;;8.60;99.90;;;;;;5068601;28;20070;-62
2021/11/24 10:36:54;;;;;;;10.20;4.18;;;8.80;99.90;;;;;;5078532;28;20043;-64
2021/11/24 10:39:21;;;;;;;7.78;3.42;;;8.90;99.90;;;;;;5086534;28;20035;-62
2021/11/24 10:41:47;;;;;;;9.43;4.53;;;8.90;99.90;;;;;;5074026;28;20033;-62
2021/11/24 10:44:26;;;;;;;7.82;4.10;;;9.10;99.90;;;;;;5051914;28;20119;-62
2021/11/24 10:46:54;;;;;;;17.55;4.00;;;9.20;99.90;;;;;;5082996;28;20107;-62
2021/11/24 10:49:19;;;;;;;9.93;3.58;;;9.40;99.90;;;;;;5089514;28;20043;-62
2021/11/24 10:51:45;;;;;;;7.35;3.55;;;9.40;99.90;;;;;;5073628;28;20033;-62
2021/11/24 10:54:19;;;;;;;8.18;3.25;;;9.50;99.90;;;;;;5088233;28;20140;-63
2021/11/24 10:57:08;;;;;;;11.70;4.82;;;9.50;99.90;;;;;;5060616;28;20028;-64
2021/11/24 10:59:42;;;;;;;5.28;3.22;;;9.50;99.90;;;;;;5092107;28;20071;-63
2021/11/24 11:02:27;;;;;;;5.55;2.90;;;9.30;99.90;;;;;;5073856;28;20042;-63
2021/11/24 11:05:13;;;;;;;5.15;3.22;;;8.90;99.90;;;;;;5063688;28;20483;-62
2021/11/24 11:07:50;;;;;;;4.93;3.03;;;8.40;99.90;;;;;;5069582;28;20028;-62
2021/11/24 11:10:25;;;;;;;4.55;2.60;;;8.20;99.90;;;;;;5072560;28;20074;-62
2021/11/24 11:13:01;;;;;;;7.07;3.15;;;8.40;99.90;;;;;;5073091;28;20039;-62
2021/11/24 11:15:47;;;;;;;9.98;4.28;;;8.50;99.90;;;;;;5072833;28;20024;-62
2021/11/24 11:18:13;;;;;;;7.68;2.83;;;8.80;99.90;;;;;;5072275;28;20503;-63
2021/11/24 11:20:51;;;;;;;3.60;2.45;;;8.80;99.90;;;;;;5072713;28;20063;-62
2021/11/24 11:23:25;;;;;;;5.05;2.67;;;8.70;99.90;;;;;;5090899;28;20062;-62
2021/11/24 11:25:59;;;;;;;5.38;2.70;;;8.40;99.90;;;;;;5074739;28;20043;-62
2021/11/24 11:28:33;;;;;;;3.10;2.63;;;7.90;99.90;;;;;;5085541;28;20108;-64
2021/11/24 11:31:06;;;;;;;4.20;2.38;;;8.00;99.90;;;;;;5054752;28;20178;-63
2021/11/24 11:33:55;;;;;;;5.78;2.53;;;8.20;99.90;;;;;;5062683;28;20036;-63
2021/11/24 11:36:21;;;;;;;14.75;2.78;;;8.20;99.90;;;;;;5057894;28;20458;-62
2021/11/24 11:38:53;;;;;;;2.58;2.20;;;8.50;99.90;;;;;;5056999;28;20051;-63
2021/11/24 11:41:31;;;;;;;2.70;1.60;;;8.20;99.90;;;;;;5089959;28;20453;-62
2021/11/24 11:43:57;;;;;;;5.90;1.80;;;8.10;99.90;;;;;;5079149;28;20024;-64
2021/11/24 11:46:29;;;;;;;4.32;2.28;;;8.30;99.90;;;;;;5072609;28;20039;-63
2021/11/24 11:48:55;;;;;;;4.07;2.35;;;8.20;99.90;;;;;;5078795;28;20028;-63
2021/11/24 11:51:28;;;;;;;3.33;1.85;;;8.20;99.90;;;;;;5090612;28;20028;-62
2021/11/24 11:53:54;;;;;;;5.70;2.15;;;8.10;99.90;;;;;;5078064;28;20120;-63
2021/11/24 11:56:23;;;;;;;4.43;1.83;;;7.90;99.90;;;;;;5066589;28;20066;-62
2021/11/24 11:59:03;;;;;;;2.85;2.15;;;7.90;99.90;;;;;;5072060;28;20034;-67
2021/11/24 12:01:32;;;;;;;4.72;2.53;;;8.20;99.90;;;;;;5078765;28;20418;-62
2021/11/24 12:04:11;;;;;;;8.52;2.25;;;8.20;99.90;;;;;;5080058;28;20051;-63
2021/11/24 12:06:39;;;;;;;8.45;2.83;;;8.40;99.90;;;;;;5073398;28;20589;-62
2021/11/24 12:09:16;;;;;;;7.93;1.92;;;8.40;99.90;;;;;;5080320;28;20101;-64
2021/11/24 12:12:12;;;;;;;14.00;2.75;;;8.10;99.90;;;;;;5080600;28;20090;-62
2021/11/24 12:14:54;;;;;;;5.70;2.08;;;8.40;99.90;;;;;;5065855;28;20025;-64
2021/11/24 12:17:32;;;;;;;3.28;2.20;;;8.70;99.90;;;;;;5076058;28;20095;-62
2021/11/24 12:19:59;;;;;;;5.30;2.45;;;8.80;99.90;;;;;;5071750;28;20032;-63
2021/11/24 12:25:20;;;;;;;4.40;2.72;;;9.10;99.90;;;;;;5074978;28;20028;-63
2021/11/24 12:27:53;;;;;;;5.68;2.30;;;9.20;99.90;;;;;;5089835;28;20512;-64
2021/11/24 12:33:30;;;;;;;13.23;4.50;;;9.30;99.90;;;;;;5089898;28;20117;-63
2021/11/24 12:36:17;;;;;;;6.10;2.40;;;9.50;99.90;;;;;;5070742;28;20096;-63
2021/11/24 12:38:55;;;;;;;6.32;2.40;;;9.60;99.90;;;;;;5071516;28;20124;-62
2021/11/24 12:41:24;;;;;;;6.70;3.13;;;9.90;99.90;;;;;;5075803;28;20051;-62
2021/11/24 12:43:55;;;;;;;8.45;2.95;;;10.20;99.90;;;;;;5071821;28;20029;-62
2021/11/24 12:46:27;;;;;;;32.15;4.10;;;10.20;99.90;;;;;;5069802;28;20509;-63
2021/11/24 12:48:58;;;;;;;15.32;4.82;;;10.50;99.90;;;;;;5084229;28;20466;-63
2021/11/24 12:51:36;;;;;;;12.75;3.50;;;10.50;99.90;;;;;;5058607;28;20039;-63
2021/11/24 12:54:11;;;;;;;4.95;2.50;;;10.60;99.90;;;;;;5071405;28;20044;-63
2021/11/24 12:56:45;;;;;;;4.25;2.45;;;10.50;99.90;;;;;;5064996;28;20112;-62
2021/11/24 12:59:23;;;;;;;6.80;4.03;;;10.30;99.90;;;;;;5073625;28;20035;-62